createdAt,value
2022-09-06T00:02:01.113Z,100865.29
2022-09-06T00:04:28.905Z,100861.92
2022-09-06T00:06:55.817Z,100862.14
2022-09-06T00:09:22.465Z,100865.10
2022-09-06T00:11:49.095Z,100861.92
2022-09-06T00:14:16.657Z,100858.30
2022-09-06T00:16:43.598Z,100857.56
2022-09-06T00:19:10.436Z,100857.98
2022-09-06T00:21:37.071Z,100858.90
2022-09-06T00:24:03.939Z,100861.55
2022-09-06T00:26:30.655Z,100861.73
2022-09-06T00:28:57.814Z,100858.89
2022-09-06T00:31:26.168Z,100860.39
2022-09-06T00:33:52.914Z,100861.48
2022-09-06T00:36:21.216Z,100861.27
2022-09-06T00:38:47.955Z,100860.41
2022-09-06T00:41:16.337Z,100855.38
2022-09-06T00:43:43.576Z,100847.80
2022-09-06T00:46:14.078Z,100849.84
2022-09-06T00:48:41.350Z,100848.98
2022-09-06T00:51:11.562Z,100846.80
2022-09-06T00:53:38.508Z,100848.36
2022-09-06T00:56:05.775Z,100846.34
2022-09-06T00:58:32.706Z,100850.39
2022-09-06T01:00:59.190Z,100850.88
2022-09-06T01:03:26.417Z,100854.59
2022-09-06T01:06:10.860Z,100860.83
2022-09-06T01:09:00.428Z,100866.59
2022-09-06T01:11:52.377Z,100861.98
2022-09-06T01:14:40.414Z,100863.36
2022-09-06T01:17:55.175Z,100862.12
2022-09-06T01:20:50.997Z,100861.57
2022-09-06T01:23:48.760Z,100856.95
2022-09-06T01:27:01.996Z,100854.89
2022-09-06T01:30:03.037Z,100856.77
2022-09-06T01:32:35.611Z,100855.31
2022-09-06T01:35:34.913Z,100853.20
2022-09-06T01:38:02.276Z,100856.95
2022-09-06T01:40:29.410Z,100862.29
2022-09-06T01:42:57.192Z,100865.38
2022-09-06T01:45:39.797Z,100864.90
2022-09-06T01:48:12.075Z,100860.56
2022-09-06T01:50:57.464Z,100852.61
2022-09-06T01:54:05.015Z,100850.75
2022-09-06T01:57:00.554Z,100860.13
2022-09-06T01:59:39.152Z,100862.55
2022-09-06T02:02:28.167Z,100865.46
2022-09-06T02:05:04.499Z,100861.73
2022-09-06T02:07:34.586Z,100859.16
2022-09-06T02:10:12.860Z,100858.28
2022-09-06T02:12:41.812Z,100855.89
2022-09-06T02:15:18.892Z,100853.16
2022-09-06T02:17:53.611Z,100854.15
2022-09-06T02:20:25.406Z,100858.85
2022-09-06T02:22:53.352Z,100859.34
2022-09-06T02:25:27.107Z,100858.70
2022-09-06T02:27:55.034Z,100855.00
2022-09-06T02:30:21.968Z,100857.89
2022-09-06T02:33:12.476Z,100856.08
2022-09-06T02:35:44.388Z,100853.40
2022-09-06T02:38:11.162Z,100847.66
2022-09-06T02:40:38.107Z,100839.93
2022-09-06T02:43:05.376Z,100843.11
2022-09-06T02:45:32.198Z,100844.80
2022-09-06T02:47:58.851Z,100848.62
2022-09-06T02:50:25.694Z,100844.96
2022-09-06T02:53:21.399Z,100844.91
2022-09-06T02:55:48.679Z,100843.83
2022-09-06T02:58:15.816Z,100841.83
2022-09-06T03:00:43.896Z,100834.20
2022-09-06T03:03:10.931Z,100829.64
2022-09-06T03:05:37.772Z,100829.65
2022-09-06T03:08:05.034Z,100829.10
2022-09-06T03:10:32.081Z,100824.86
2022-09-06T03:12:59.114Z,100821.90
2022-09-06T03:15:25.756Z,100819.96
2022-09-06T03:17:52.494Z,100823.83
2022-09-06T03:20:19.232Z,100818.58
2022-09-06T03:22:46.070Z,100820.91
2022-09-06T03:25:12.816Z,100819.88
2022-09-06T03:27:39.440Z,100816.70
2022-09-06T03:30:06.998Z,100814.94
2022-09-06T03:32:33.861Z,100812.42
2022-09-06T03:35:00.593Z,100808.77
2022-09-06T03:37:27.856Z,100809.10
2022-09-06T03:39:54.699Z,100813.55
2022-09-06T03:42:21.832Z,100813.95
2022-09-06T03:44:48.576Z,100810.55
2022-09-06T03:47:19.282Z,100809.27
2022-09-06T03:49:47.306Z,100810.71
2022-09-06T03:52:14.947Z,100813.00
2022-09-06T03:54:42.007Z,100812.56
2022-09-06T03:57:09.131Z,100812.88
2022-09-06T03:59:36.188Z,100809.05
2022-09-06T04:02:03.765Z,100809.57
2022-09-06T04:04:30.572Z,100816.76
2022-09-06T04:06:57.110Z,100815.95
2022-09-06T04:09:23.945Z,100815.68
2022-09-06T04:11:50.385Z,100816.35
2022-09-06T04:14:17.242Z,100814.53
2022-09-06T04:16:43.824Z,100812.86
2022-09-06T04:19:10.599Z,100815.98
2022-09-06T04:21:37.132Z,100813.03
2022-09-06T04:24:03.786Z,100812.27
2022-09-06T04:26:30.523Z,100811.84
2022-09-06T04:28:57.053Z,100812.38
2022-09-06T04:31:23.677Z,100814.96
2022-09-06T04:33:50.252Z,100815.05
2022-09-06T04:36:16.979Z,100812.64
2022-09-06T04:38:44.626Z,100801.77
2022-09-06T04:41:13.881Z,100799.46
2022-09-06T04:43:40.294Z,100794.64
2022-09-06T04:46:25.528Z,100799.67
2022-09-06T04:48:53.504Z,100801.94
2022-09-06T04:51:21.612Z,100800.41
2022-09-06T04:53:48.310Z,100800.04
2022-09-06T04:56:17.813Z,100800.50
2022-09-06T04:58:45.680Z,100800.66
2022-09-06T05:01:12.565Z,100792.95
2022-09-06T05:03:39.161Z,100787.77
2022-09-06T05:06:31.899Z,100791.83
2022-09-06T05:08:58.320Z,100791.17
2022-09-06T05:11:24.806Z,100796.75
2022-09-06T05:13:51.417Z,100800.64
2022-09-06T05:16:18.558Z,100799.54
2022-09-06T05:18:45.088Z,100802.16
2022-09-06T05:21:11.840Z,100813.29
2022-09-06T05:23:38.379Z,100816.54
2022-09-06T05:26:06.038Z,100813.92
2022-09-06T05:28:32.883Z,100815.02
2022-09-06T05:31:28.757Z,100815.40
2022-09-06T05:33:55.869Z,100816.27
2022-09-06T05:36:23.200Z,100817.42
2022-09-06T05:38:51.170Z,100817.77
2022-09-06T05:41:18.223Z,100821.20
2022-09-06T05:43:45.466Z,100820.52
2022-09-06T05:46:12.415Z,100825.92
2022-09-06T05:48:39.462Z,100828.77
2022-09-06T05:51:09.083Z,100828.18
2022-09-06T05:53:36.527Z,100826.95
2022-09-06T05:56:04.293Z,100829.41
2022-09-06T05:58:31.148Z,100833.82
2022-09-06T06:01:15.313Z,100836.19
2022-09-06T06:03:43.380Z,100839.02
2022-09-06T06:06:10.208Z,100838.20
2022-09-06T06:08:37.304Z,100838.94
2022-09-06T06:11:04.081Z,100844.96
2022-09-06T06:13:34.747Z,100846.89
2022-09-06T06:16:03.006Z,100847.72
2022-09-06T06:32:36.312Z,100835.36
2022-09-06T06:35:04.695Z,100833.36
2022-09-06T06:37:33.844Z,100832.08
2022-09-06T06:40:01.181Z,100835.28
2022-09-06T06:42:28.694Z,100837.83
2022-09-06T06:44:57.985Z,100833.56
2022-09-06T06:47:25.274Z,100833.45
2022-09-06T06:49:52.733Z,100832.04
2022-09-06T06:52:22.096Z,100830.15
2022-09-06T06:54:51.271Z,100829.59
2022-09-06T06:57:19.669Z,100825.47
2022-09-06T06:59:46.925Z,100824.04
2022-09-06T07:02:16.313Z,100824.74
2022-09-06T07:04:43.789Z,100823.91
2022-09-06T07:12:46.295Z,100818.26
2022-09-06T07:15:13.557Z,100822.36
2022-09-06T07:17:40.815Z,100830.75
2022-09-06T07:22:39.911Z,100842.13
2022-09-06T07:25:09.699Z,100843.80
2022-09-06T07:27:52.369Z,100843.67
2022-09-06T07:30:20.874Z,100845.27
2022-09-06T07:32:48.799Z,100848.17
2022-09-06T07:35:16.413Z,100849.72
2022-09-06T07:37:44.791Z,100850.92
2022-09-06T07:40:12.591Z,100853.27
2022-09-06T07:42:39.944Z,100855.30
2022-09-06T07:45:07.812Z,100860.67
2022-09-06T07:53:15.685Z,100864.86
2022-09-06T07:55:48.016Z,100857.30
2022-09-06T07:58:15.368Z,100855.73
2022-09-06T08:00:43.144Z,100853.35
2022-09-06T08:03:10.698Z,100847.89
2022-09-06T08:11:15.467Z,100844.58
2022-09-06T08:13:43.218Z,100839.65
2022-09-06T08:16:11.726Z,100837.89
2022-09-06T08:18:39.057Z,100834.27
2022-09-06T08:21:13.349Z,100830.63
2022-09-06T08:23:44.930Z,100823.83
2022-09-06T08:26:12.379Z,100819.48
2022-09-06T08:28:39.735Z,100817.81
2022-09-06T08:31:15.878Z,100816.86
2022-09-06T08:33:44.045Z,100817.65
2022-09-06T08:36:11.941Z,100819.30
2022-09-06T08:38:40.115Z,100819.48
2022-09-06T08:41:12.279Z,100820.29
2022-09-06T08:43:40.717Z,100816.73
2022-09-06T08:46:09.685Z,100815.70
2022-09-06T08:48:40.086Z,100814.58
2022-09-06T08:51:33.380Z,100814.36
2022-09-06T08:54:06.221Z,100812.38
2022-09-06T08:56:39.310Z,100815.86
2022-09-06T08:59:12.454Z,100813.66
2022-09-06T09:01:55.202Z,100812.28
2022-09-06T09:04:24.727Z,100810.07
2022-09-06T09:06:57.303Z,100809.91
2022-09-06T09:09:25.376Z,100810.54
2022-09-06T09:11:52.935Z,100812.27
2022-09-06T09:14:35.727Z,100815.40
2022-09-06T09:17:17.124Z,100815.92
2022-09-06T09:19:44.795Z,100823.56
2022-09-06T09:22:13.975Z,100821.52
2022-09-06T09:24:41.249Z,100826.10
2022-09-06T09:27:11.568Z,100822.56
2022-09-06T09:32:54.194Z,100811.29
2022-09-06T09:35:27.757Z,100811.70
2022-09-06T09:38:11.838Z,100811.64
2022-09-06T09:40:41.942Z,100806.41
2022-09-06T09:43:28.784Z,100811.39
2022-09-06T09:46:23.560Z,100815.94
2022-09-06T09:49:04.644Z,100819.94
2022-09-06T09:51:34.988Z,100814.59
2022-09-06T09:54:11.356Z,100806.92
2022-09-06T09:56:41.350Z,100803.06
2022-09-06T09:59:24.291Z,100793.31
2022-09-06T10:01:56.278Z,100789.06
2022-09-06T10:04:44.342Z,100791.35
2022-09-06T10:07:15.214Z,100792.10
2022-09-06T10:09:44.397Z,100789.64
2022-09-06T10:12:29.818Z,100786.98
2022-09-06T10:14:59.495Z,100787.45
2022-09-06T10:17:27.564Z,100784.61
2022-09-06T10:19:55.031Z,100782.36
2022-09-06T10:22:32.727Z,100776.89
2022-09-06T10:25:33.364Z,100773.73
2022-09-06T10:28:15.760Z,100770.79
2022-09-06T10:31:09.284Z,100765.42
2022-09-06T10:33:49.078Z,100764.78
2022-09-06T10:36:23.397Z,100757.38
2022-09-06T10:39:34.081Z,100748.59
2022-09-06T10:42:04.076Z,100739.45
2022-09-06T10:44:56.115Z,100740.15
2022-09-06T10:47:29.832Z,100738.91
2022-09-06T10:49:59.752Z,100727.15
2022-09-06T10:52:41.316Z,100723.91
2022-09-06T10:55:13.158Z,100718.86
2022-09-06T11:00:39.830Z,100708.80
2022-09-06T11:06:22.490Z,100717.38
2022-09-06T11:08:58.300Z,100718.79
2022-09-06T11:11:49.358Z,100714.10
2022-09-06T11:14:17.991Z,100716.73
2022-09-06T11:17:00.765Z,100715.95
2022-09-06T11:19:32.711Z,100709.95
2022-09-06T11:22:12.547Z,100710.23
2022-09-06T11:25:30.692Z,100709.38
2022-09-06T11:28:00.811Z,100714.42
2022-09-06T11:30:30.161Z,100717.45
2022-09-06T11:33:23.621Z,100715.92
2022-09-06T11:35:51.443Z,100711.89
2022-09-06T11:38:27.395Z,100708.54
2022-09-06T11:40:59.265Z,100709.75
2022-09-06T11:43:44.135Z,100705.34
2022-09-06T11:46:11.553Z,100697.98
2022-09-06T11:49:23.891Z,100696.18
2022-09-06T11:51:51.136Z,100696.56
2022-09-06T11:54:25.300Z,100694.06
2022-09-06T11:56:56.450Z,100690.17
2022-09-06T11:59:35.150Z,100691.61
2022-09-06T12:02:06.274Z,100689.36
2022-09-06T12:05:01.002Z,100690.14
2022-09-06T12:07:29.446Z,100690.02
2022-09-06T12:09:57.001Z,100687.63
2022-09-06T12:12:41.237Z,100685.31
2022-09-06T12:15:43.762Z,100681.50
2022-09-06T12:18:11.078Z,100681.66
2022-09-06T12:20:53.213Z,100677.44
2022-09-06T12:23:35.797Z,100672.88
2022-09-06T12:26:07.435Z,100666.48
2022-09-06T12:28:41.664Z,100664.67
2022-09-06T12:31:35.643Z,100664.32
2022-09-06T12:34:13.235Z,100662.38
2022-09-06T12:36:54.287Z,100658.26
2022-09-06T12:39:24.703Z,100663.23
2022-09-06T12:42:02.842Z,100664.02
2022-09-06T12:44:34.601Z,100666.60
2022-09-06T12:47:19.773Z,100665.52
2022-09-06T12:49:47.125Z,100667.23
2022-09-06T12:52:16.939Z,100663.38
2022-09-06T12:54:47.417Z,100658.21
2022-09-06T12:57:26.641Z,100652.66
2022-09-06T12:59:55.915Z,100645.38
2022-09-06T13:02:39.017Z,100645.00
2022-09-06T13:05:09.163Z,100640.95
2022-09-06T13:07:41.513Z,100634.21
2022-09-06T13:10:09.762Z,100628.66
2022-09-06T13:12:42.764Z,100623.60
2022-09-06T13:15:25.232Z,100620.17
2022-09-06T13:17:54.179Z,100614.04
2022-09-06T13:20:30.063Z,100606.44
2022-09-06T13:23:21.545Z,100599.34
2022-09-06T13:25:50.761Z,100591.27
2022-09-06T13:28:29.536Z,100588.42
2022-09-06T13:31:29.897Z,100589.31
2022-09-06T13:33:58.361Z,100591.98
2022-09-06T13:36:31.335Z,100583.98
2022-09-06T13:39:00.226Z,100589.88
2022-09-06T13:41:27.300Z,100591.88
2022-09-06T13:44:08.375Z,100588.44
2022-09-06T13:46:38.848Z,100582.56
2022-09-06T13:49:06.759Z,100576.21
2022-09-06T13:51:34.944Z,100572.45
2022-09-06T13:54:06.316Z,100577.36
2022-09-06T13:56:33.652Z,100580.66
2022-09-06T13:59:02.569Z,100580.56
2022-09-06T14:01:30.172Z,100581.83
2022-09-06T14:03:58.070Z,100581.16
2022-09-06T14:06:25.527Z,100581.71
2022-09-06T14:09:09.013Z,100576.77
2022-09-06T14:11:37.545Z,100573.91
2022-09-06T14:14:05.749Z,100575.20
2022-09-06T14:16:34.899Z,100572.66
2022-09-06T14:19:03.191Z,100564.75
2022-09-06T14:21:30.553Z,100560.00
2022-09-06T14:24:03.351Z,100555.04
2022-09-06T14:26:32.011Z,100558.47
2022-09-06T14:29:00.603Z,100551.05
2022-09-06T14:31:29.113Z,100558.46
2022-09-06T14:33:57.452Z,100554.17
2022-09-06T14:36:29.512Z,100551.17
2022-09-06T14:38:58.609Z,100549.81
2022-09-06T14:41:26.891Z,100546.71
2022-09-06T14:43:55.990Z,100549.68
2022-09-06T14:46:24.982Z,100548.35
2022-09-06T14:49:10.400Z,100545.71
2022-09-06T14:51:39.017Z,100541.90
2022-09-06T14:54:09.363Z,100545.35
2022-09-06T14:56:38.944Z,100541.49
2022-09-06T14:59:07.001Z,100537.20
2022-09-06T15:01:38.369Z,100536.84
2022-09-06T15:04:08.398Z,100535.25
2022-09-06T15:06:37.316Z,100538.31
2022-09-06T15:09:11.736Z,100534.86
2022-09-06T15:11:42.186Z,100531.08
2022-09-06T15:14:17.528Z,100531.34
2022-09-06T15:16:46.157Z,100533.85
2022-09-06T15:19:14.229Z,100534.78
2022-09-06T15:21:42.397Z,100532.11
2022-09-06T15:24:12.114Z,100528.83
2022-09-06T15:26:40.705Z,100526.67
2022-09-06T15:29:09.412Z,100527.55
2022-09-06T15:31:38.389Z,100527.11
2022-09-06T15:34:06.676Z,100521.70
2022-09-06T15:36:34.039Z,100522.66
2022-09-06T15:39:02.713Z,100518.13
2022-09-06T15:41:32.722Z,100511.66
2022-09-06T15:44:10.767Z,100506.27
2022-09-06T15:46:48.636Z,100500.10
2022-09-06T15:49:23.303Z,100495.40
2022-09-06T15:51:53.679Z,100499.46
2022-09-06T15:54:44.790Z,100504.31
2022-09-06T15:57:13.756Z,100497.67
2022-09-06T15:59:41.970Z,100498.48
2022-09-06T16:02:10.329Z,100504.23
2022-09-06T16:04:37.482Z,100507.28
2022-09-06T16:07:04.845Z,100508.48
2022-09-06T16:09:32.185Z,100508.86
2022-09-06T16:11:59.337Z,100509.94
2022-09-06T16:14:28.596Z,100501.53
2022-09-06T16:16:58.810Z,100495.13
2022-09-06T16:19:28.668Z,100493.43
2022-09-06T16:21:55.932Z,100492.35
2022-09-06T16:24:23.812Z,100490.91
2022-09-06T16:26:51.246Z,100480.48
2022-09-06T16:29:19.521Z,100480.40
2022-09-06T16:31:47.616Z,100479.98
2022-09-06T16:34:15.671Z,100480.59
2022-09-06T16:36:43.139Z,100479.04
2022-09-06T16:39:11.200Z,100475.86
2022-09-06T16:41:41.429Z,100474.32
2022-09-06T16:44:10.821Z,100474.98
2022-09-06T16:46:40.428Z,100472.73
2022-09-06T16:49:08.003Z,100461.23
2022-09-06T16:51:35.869Z,100457.36
2022-09-06T16:54:03.668Z,100454.32
2022-09-06T16:56:35.977Z,100451.31
2022-09-06T16:59:08.665Z,100455.30
2022-09-06T17:01:36.931Z,100453.61
2022-09-06T17:04:04.969Z,100453.06
2022-09-06T17:06:34.537Z,100451.55
2022-09-06T17:09:01.906Z,100450.59
2022-09-06T17:11:29.644Z,100446.63
2022-09-06T17:13:58.022Z,100441.60
2022-09-06T17:16:45.105Z,100447.77
2022-09-06T17:19:14.027Z,100450.78
2022-09-06T17:21:41.596Z,100451.33
2022-09-06T17:24:09.655Z,100450.27
2022-09-06T17:26:39.165Z,100449.11
2022-09-06T17:29:07.801Z,100449.46
2022-09-06T17:31:36.947Z,100454.58
2022-09-06T17:34:04.716Z,100459.45
2022-09-06T17:36:33.614Z,100470.61
2022-09-06T17:39:24.422Z,100474.15
2022-09-06T17:41:54.056Z,100477.52
2022-09-06T17:44:26.197Z,100478.32
2022-09-06T17:47:11.938Z,100479.63
2022-09-06T17:49:40.212Z,100482.61
2022-09-06T17:52:07.808Z,100488.13
2022-09-06T17:54:35.911Z,100488.98
2022-09-06T17:57:03.431Z,100488.48
2022-09-06T17:59:35.345Z,100484.30
2022-09-06T18:02:04.252Z,100484.06
2022-09-06T18:04:31.876Z,100483.39
2022-09-06T18:06:59.705Z,100487.16
2022-09-06T18:09:27.280Z,100489.87
2022-09-06T18:11:55.249Z,100487.47
2022-09-06T18:14:23.095Z,100484.64
2022-09-06T18:16:53.182Z,100484.07
2022-09-06T18:19:22.000Z,100485.67
2022-09-06T18:21:49.883Z,100485.69
2022-09-06T18:24:18.774Z,100487.98
2022-09-06T18:26:48.374Z,100488.52
2022-09-06T18:29:20.028Z,100489.06
2022-09-06T18:31:48.697Z,100491.58
2022-09-06T18:34:17.503Z,100493.38
2022-09-06T18:36:45.383Z,100493.34
2022-09-06T18:39:14.147Z,100490.07
2022-09-06T18:42:00.567Z,100486.70
2022-09-06T18:44:33.282Z,100485.26
2022-09-06T18:47:06.771Z,100486.48
2022-09-06T18:49:35.239Z,100487.72
2022-09-06T18:52:04.865Z,100498.02
2022-09-06T18:54:33.629Z,100498.13
2022-09-06T18:57:01.566Z,100491.46
2022-09-06T18:59:29.544Z,100489.17
2022-09-06T19:01:57.658Z,100481.13
2022-09-06T19:04:25.961Z,100478.13
2022-09-06T19:06:53.976Z,100479.35
2022-09-06T19:09:22.041Z,100479.31
2022-09-06T19:11:54.311Z,100478.52
2022-09-06T19:14:25.657Z,100479.11
2022-09-06T19:16:55.157Z,100483.50
2022-09-06T19:19:24.045Z,100479.03
2022-09-06T19:21:52.042Z,100483.39
2022-09-06T19:24:23.457Z,100476.56
2022-09-06T19:26:53.629Z,100478.57
2022-09-06T19:29:21.864Z,100483.65
2022-09-06T19:31:50.820Z,100480.53
2022-09-06T19:34:19.852Z,100486.65
2022-09-06T19:36:48.636Z,100485.59
2022-09-06T19:39:17.635Z,100481.10
2022-09-06T19:41:47.760Z,100478.29
2022-09-06T19:44:17.459Z,100472.90
2022-09-06T19:46:47.920Z,100470.12
2022-09-06T19:49:17.782Z,100470.66
2022-09-06T19:51:47.137Z,100467.70
2022-09-06T19:54:16.460Z,100461.40
2022-09-06T19:56:45.233Z,100464.41
2022-09-06T19:59:14.382Z,100457.00
2022-09-06T20:01:43.524Z,100453.48
2022-09-06T20:04:12.376Z,100450.59
2022-09-06T20:06:40.482Z,100450.60
2022-09-06T20:09:10.101Z,100450.63
2022-09-06T20:11:40.754Z,100451.13
2022-09-06T20:14:09.630Z,100454.45
2022-09-06T20:16:41.390Z,100452.85
2022-09-06T20:19:10.656Z,100450.13
2022-09-06T20:21:38.596Z,100445.94
2022-09-06T20:24:06.849Z,100438.80
2022-09-06T20:26:34.223Z,100436.95
2022-09-06T20:29:03.432Z,100437.53
2022-09-06T20:31:32.365Z,100436.12
2022-09-06T20:34:01.299Z,100438.67
2022-09-06T20:36:29.595Z,100439.54
2022-09-06T20:38:57.872Z,100442.98
2022-09-06T20:41:27.188Z,100442.89
2022-09-06T20:43:57.349Z,100443.45
2022-09-06T20:46:27.856Z,100444.58
2022-09-06T20:48:58.677Z,100442.04
2022-09-06T20:51:26.824Z,100437.59
2022-09-06T20:53:58.761Z,100436.05
2022-09-06T20:56:32.378Z,100430.94
2022-09-06T20:59:01.862Z,100423.52
2022-09-06T21:01:31.538Z,100421.61
2022-09-06T21:04:00.486Z,100423.12
2022-09-06T21:06:29.578Z,100424.02
2022-09-06T21:08:57.933Z,100428.89
2022-09-06T21:11:26.207Z,100429.96
2022-09-06T21:13:56.218Z,100426.95
2022-09-06T21:16:25.620Z,100425.00
2022-09-06T21:18:57.412Z,100422.98
2022-09-06T21:21:25.831Z,100429.59
2022-09-06T21:23:53.472Z,100428.04
2022-09-06T21:26:22.139Z,100428.40
2022-09-06T21:28:50.213Z,100428.79
2022-09-06T21:31:22.538Z,100425.73
2022-09-06T21:33:55.360Z,100424.83
2022-09-06T21:36:31.423Z,100423.91
2022-09-06T21:39:03.573Z,100420.36
2022-09-06T21:41:31.981Z,100422.48
2022-09-06T21:44:00.993Z,100423.56
2022-09-06T21:46:34.434Z,100424.23
2022-09-06T21:49:07.772Z,100423.48
2022-09-06T21:51:35.522Z,100420.77
2022-09-06T21:54:06.268Z,100420.18
2022-09-06T21:56:34.450Z,100419.61
2022-09-06T21:59:02.194Z,100421.51
2022-09-06T22:01:32.101Z,100422.40
2022-09-06T22:04:00.498Z,100418.59
2022-09-06T22:06:30.621Z,100413.08
2022-09-06T22:08:59.352Z,100413.09
2022-09-06T22:11:32.368Z,100417.41
2022-09-06T22:14:01.513Z,100416.19
2022-09-06T22:16:29.799Z,100412.38
2022-09-06T22:18:57.105Z,100413.35
2022-09-06T22:21:25.171Z,100409.09
2022-09-06T22:23:57.634Z,100408.73
2022-09-06T22:26:26.953Z,100409.20
2022-09-06T22:28:59.113Z,100409.41
2022-09-06T22:31:28.173Z,100409.75
2022-09-06T22:33:56.147Z,100410.08
2022-09-06T22:36:26.633Z,100410.98
2022-09-06T22:38:57.928Z,100403.98
2022-09-06T22:41:27.426Z,100395.59
2022-09-06T22:43:55.527Z,100390.26
2022-09-06T22:46:23.507Z,100392.53
2022-09-06T22:48:50.851Z,100391.45
2022-09-06T22:51:18.365Z,100393.14
2022-09-06T22:53:45.871Z,100396.45
2022-09-06T22:56:13.007Z,100399.09
2022-09-06T22:58:40.275Z,100398.67
2022-09-06T23:01:10.784Z,100397.04
2022-09-06T23:03:38.636Z,100394.42
2022-09-06T23:06:07.153Z,100395.88
2022-09-06T23:08:36.137Z,100389.21
2022-09-06T23:11:08.835Z,100389.84
2022-09-06T23:13:36.089Z,100385.42
2022-09-06T23:16:07.860Z,100385.56
2022-09-06T23:18:35.803Z,100383.12
2022-09-06T23:21:13.863Z,100384.34
2022-09-06T23:23:41.974Z,100382.71
2022-09-06T23:26:13.129Z,100381.67
2022-09-06T23:28:40.480Z,100381.48
2022-09-06T23:31:09.881Z,100378.54
2022-09-06T23:33:37.632Z,100372.91
2022-09-06T23:36:06.247Z,100371.05
2022-09-06T23:38:34.728Z,100370.83
2022-09-06T23:41:02.580Z,100366.73
2022-09-06T23:43:30.327Z,100367.58
2022-09-06T23:45:57.800Z,100365.36
2022-09-06T23:48:25.378Z,100360.35
2022-09-06T23:50:52.920Z,100362.67
2022-09-06T23:53:20.899Z,100365.96
2022-09-06T23:55:48.560Z,100366.27
2022-09-06T23:58:16.122Z,100368.81
